createdAt,value
2023-04-25T00:02:15.850Z,13.57
2023-04-25T00:04:43.347Z,13.59
2023-04-25T00:07:11.491Z,13.60
2023-04-25T00:09:38.404Z,13.58
2023-04-25T00:12:05.483Z,13.59
2023-04-25T00:14:35.056Z,13.59
2023-04-25T00:17:02.362Z,13.60
2023-04-25T00:19:29.439Z,13.57
2023-04-25T00:21:56.797Z,13.63
2023-04-25T00:24:23.710Z,13.63
2023-04-25T00:26:50.646Z,13.63
2023-04-25T00:29:17.538Z,13.63
2023-04-25T00:31:44.740Z,13.65
2023-04-25T00:34:11.681Z,13.66
2023-04-25T00:36:39.055Z,13.64
2023-04-25T00:39:06.029Z,13.67
2023-04-25T00:41:34.116Z,13.68
2023-04-25T00:44:03.185Z,13.69
2023-04-25T00:46:31.237Z,13.69
2023-04-25T00:48:58.264Z,13.70
2023-04-25T00:51:27.438Z,13.68
2023-04-25T00:53:55.064Z,13.68
2023-04-25T00:56:22.448Z,13.67
2023-04-25T00:58:50.757Z,13.70
2023-04-25T01:01:18.042Z,13.72
2023-04-25T01:03:48.082Z,13.69
2023-04-25T01:06:15.037Z,13.72
2023-04-25T01:08:44.095Z,13.71
2023-04-25T01:11:11.088Z,13.74
2023-04-25T01:13:38.072Z,13.71
2023-04-25T01:16:05.398Z,13.74
2023-04-25T01:18:33.237Z,13.75
2023-04-25T01:21:12.597Z,13.71
2023-04-25T01:23:41.643Z,13.72
2023-04-25T01:26:11.544Z,13.71
2023-04-25T01:28:43.336Z,13.73
2023-04-25T01:31:13.191Z,13.72
2023-04-25T01:33:40.236Z,13.75
2023-04-25T01:36:07.484Z,13.76
2023-04-25T01:38:36.343Z,13.78
2023-04-25T01:41:03.555Z,13.77
2023-04-25T01:43:30.654Z,13.77
2023-04-25T01:45:58.108Z,13.74
2023-04-25T01:48:25.494Z,13.77
2023-04-25T01:50:52.476Z,13.77
2023-04-25T01:53:19.468Z,13.74
2023-04-25T01:55:47.119Z,13.79
2023-04-25T01:58:16.458Z,13.78
2023-04-25T02:01:02.098Z,13.77
2023-04-25T02:03:36.215Z,13.77
2023-04-25T02:06:06.067Z,13.81
2023-04-25T02:08:35.789Z,13.81
2023-04-25T02:11:04.182Z,13.82
2023-04-25T02:13:38.081Z,13.83
2023-04-25T02:16:17.070Z,13.82
2023-04-25T02:18:45.909Z,13.83
2023-04-25T02:21:12.802Z,13.82
2023-04-25T02:23:39.759Z,13.83
2023-04-25T02:26:07.386Z,13.81
2023-04-25T02:28:34.307Z,13.80
2023-04-25T02:31:05.095Z,13.79
2023-04-25T02:33:32.030Z,13.77
2023-04-25T02:35:58.964Z,13.78
2023-04-25T02:38:26.290Z,13.77
2023-04-25T02:40:53.210Z,13.79
2023-04-25T02:43:20.169Z,13.80
2023-04-25T02:45:47.065Z,13.77
2023-04-25T02:48:14.001Z,13.78
2023-04-25T02:50:40.970Z,13.80
2023-04-25T02:53:07.936Z,13.79
2023-04-25T02:55:41.623Z,13.80
2023-04-25T02:58:08.662Z,13.79
2023-04-25T03:00:44.975Z,13.80
2023-04-25T03:03:12.324Z,13.82
2023-04-25T03:05:39.619Z,13.83
2023-04-25T03:08:07.275Z,13.81
2023-04-25T03:10:35.324Z,13.80
2023-04-25T03:13:06.208Z,13.75
2023-04-25T03:15:33.164Z,13.79
2023-04-25T03:18:00.161Z,13.75
2023-04-25T03:20:27.111Z,13.77
2023-04-25T03:22:54.221Z,13.76
2023-04-25T03:25:21.250Z,13.74
2023-04-25T03:27:48.222Z,13.68
2023-04-25T03:30:15.465Z,13.72
2023-04-25T03:32:44.469Z,13.71
2023-04-25T03:35:15.384Z,13.72
2023-04-25T03:37:46.326Z,13.71
2023-04-25T03:40:17.390Z,13.69
2023-04-25T03:43:05.834Z,13.69
2023-04-25T03:45:33.961Z,13.66
2023-04-25T03:48:01.168Z,13.67
2023-04-25T03:50:29.981Z,13.65
2023-04-25T03:52:56.887Z,13.66
2023-04-25T03:55:26.953Z,13.65
2023-04-25T03:57:53.991Z,13.65
2023-04-25T04:00:21.027Z,13.64
2023-04-25T04:02:51.966Z,13.61
2023-04-25T04:05:19.264Z,13.62
2023-04-25T04:07:52.617Z,13.60
2023-04-25T04:10:19.542Z,13.59
2023-04-25T04:12:46.515Z,13.56
2023-04-25T04:15:13.555Z,13.60
2023-04-25T04:17:42.200Z,13.60
2023-04-25T04:20:10.960Z,13.61
2023-04-25T04:22:39.788Z,13.62
2023-04-25T04:25:12.565Z,13.63
2023-04-25T04:27:59.949Z,13.63
2023-04-25T04:30:47.896Z,13.61
2023-04-25T04:33:19.915Z,13.61
2023-04-25T04:35:49.797Z,13.60
2023-04-25T04:38:19.579Z,13.63
2023-04-25T04:40:47.254Z,13.64
2023-04-25T04:43:20.341Z,13.65
2023-04-25T04:46:02.641Z,13.64
2023-04-25T04:48:59.643Z,13.62
2023-04-25T04:51:46.844Z,13.64
2023-04-25T04:54:34.657Z,13.60
2023-04-25T04:57:14.785Z,13.65
2023-04-25T05:00:00.557Z,13.66
2023-04-25T05:02:53.565Z,13.67
2023-04-25T05:05:40.970Z,13.66
2023-04-25T05:08:17.987Z,13.68
2023-04-25T05:11:04.402Z,13.70
2023-04-25T05:13:38.278Z,13.69
2023-04-25T05:16:16.027Z,13.67
2023-04-25T05:19:09.218Z,13.70
2023-04-25T05:21:47.476Z,13.66
2023-04-25T05:24:27.761Z,13.70
2023-04-25T05:27:12.465Z,13.65
2023-04-25T05:30:06.488Z,13.64
2023-04-25T05:32:41.567Z,13.70
2023-04-25T05:35:09.887Z,13.70
2023-04-25T05:37:45.326Z,13.70
2023-04-25T05:40:14.413Z,13.69
2023-04-25T05:42:54.461Z,13.74
2023-04-25T05:45:31.848Z,13.74
2023-04-25T05:48:04.588Z,13.72
2023-04-25T05:50:50.212Z,13.72
2023-04-25T05:53:26.409Z,13.71
2023-04-25T05:55:59.492Z,13.70
2023-04-25T05:58:27.873Z,13.70
2023-04-25T06:00:55.608Z,13.66
2023-04-25T06:03:22.802Z,13.68
2023-04-25T06:05:51.349Z,13.64
2023-04-25T06:08:18.258Z,13.61
2023-04-25T06:10:45.248Z,13.57
2023-04-25T06:13:12.194Z,13.56
2023-04-25T06:15:39.202Z,13.54
2023-04-25T06:18:06.232Z,13.54
2023-04-25T06:20:34.684Z,13.48
2023-04-25T06:23:02.086Z,13.41
2023-04-25T06:25:39.205Z,13.54
2023-04-25T06:28:06.367Z,13.59
2023-04-25T06:30:33.259Z,13.65
2023-04-25T06:33:06.224Z,13.69
2023-04-25T06:35:33.729Z,13.71
2023-04-25T06:38:00.950Z,13.67
2023-04-25T06:40:28.238Z,13.74
2023-04-25T06:42:55.330Z,13.75
2023-04-25T06:45:48.510Z,13.76
2023-04-25T06:48:16.529Z,13.80
2023-04-25T06:50:43.499Z,13.85
2023-04-25T06:53:12.480Z,13.84
2023-04-25T06:55:40.582Z,13.87
2023-04-25T06:58:13.635Z,13.89
2023-04-25T07:00:55.773Z,13.91
2023-04-25T07:03:25.346Z,13.89
2023-04-25T07:05:56.506Z,14.01
2023-04-25T07:08:24.824Z,14.06
2023-04-25T07:10:51.752Z,14.08
2023-04-25T07:13:18.625Z,14.09
2023-04-25T07:15:45.924Z,14.12
2023-04-25T07:18:13.665Z,14.17
2023-04-25T07:20:40.759Z,14.21
2023-04-25T07:23:07.677Z,14.23
2023-04-25T07:25:34.620Z,14.22
2023-04-25T07:28:02.187Z,14.30
2023-04-25T07:30:29.175Z,14.37
2023-04-25T07:32:56.881Z,14.43
2023-04-25T07:35:24.369Z,14.52
2023-04-25T07:37:51.394Z,14.63
2023-04-25T07:40:19.991Z,14.78
2023-04-25T07:42:50.871Z,14.91
2023-04-25T07:45:24.567Z,14.99
2023-04-25T07:47:52.385Z,15.03
2023-04-25T07:50:19.357Z,15.04
2023-04-25T07:52:47.633Z,15.05
2023-04-25T07:55:22.192Z,15.06
2023-04-25T07:57:57.948Z,15.11
2023-04-25T08:00:24.883Z,15.18
2023-04-25T08:03:03.750Z,15.27
2023-04-25T08:05:30.945Z,15.33
2023-04-25T08:08:03.469Z,15.38
2023-04-25T08:10:30.857Z,15.39
2023-04-25T08:12:57.868Z,15.39
2023-04-25T08:15:24.858Z,15.40
2023-04-25T08:17:52.126Z,15.45
2023-04-25T08:20:19.646Z,15.49
2023-04-25T08:22:46.922Z,15.47
2023-04-25T08:25:26.353Z,15.42
2023-04-25T08:27:54.019Z,15.40
2023-04-25T08:30:22.919Z,15.34
2023-04-25T08:32:51.188Z,15.33
2023-04-25T08:35:31.946Z,15.25
2023-04-25T08:37:58.924Z,15.27
2023-04-25T08:40:30.981Z,15.27
2023-04-25T08:43:04.881Z,15.26
2023-04-25T08:45:33.431Z,15.26
2023-04-25T08:48:02.121Z,15.26
2023-04-25T08:50:29.210Z,15.37
2023-04-25T08:53:03.924Z,15.41
2023-04-25T08:55:32.402Z,15.47
2023-04-25T08:58:01.711Z,15.50
2023-04-25T09:00:29.341Z,15.52
2023-04-25T09:02:58.061Z,15.53
2023-04-25T09:05:30.384Z,15.54
2023-04-25T09:07:57.442Z,15.61
2023-04-25T09:10:24.638Z,15.63
2023-04-25T09:13:16.072Z,15.62
2023-04-25T09:16:01.664Z,15.60
2023-04-25T09:18:40.046Z,15.60
2023-04-25T09:21:14.199Z,15.65
2023-04-25T09:23:48.329Z,15.74
2023-04-25T09:26:18.187Z,15.77
2023-04-25T09:28:46.810Z,15.86
2023-04-25T09:31:26.217Z,15.90
2023-04-25T09:34:04.497Z,15.95
2023-04-25T09:36:41.263Z,16.01
2023-04-25T09:39:30.486Z,16.02
2023-04-25T09:42:06.041Z,16.12
2023-04-25T09:44:33.190Z,16.15
2023-04-25T09:47:00.208Z,16.16
2023-04-25T09:49:29.837Z,16.14
2023-04-25T09:52:18.524Z,16.05
2023-04-25T09:54:56.526Z,16.06
2023-04-25T09:57:30.507Z,16.00
2023-04-25T10:00:01.969Z,15.97
2023-04-25T10:02:44.170Z,15.95
2023-04-25T10:05:17.927Z,15.91
2023-04-25T10:07:45.562Z,15.88
2023-04-25T10:10:17.514Z,15.87
2023-04-25T10:12:45.551Z,15.85
2023-04-25T10:15:14.804Z,15.85
2023-04-25T10:17:41.742Z,15.84
2023-04-25T10:20:11.752Z,15.83
2023-04-25T10:22:43.716Z,15.78
2023-04-25T10:25:12.195Z,15.70
2023-04-25T10:27:40.577Z,15.65
2023-04-25T10:30:16.200Z,15.57
2023-04-25T10:32:44.062Z,15.53
2023-04-25T10:35:25.733Z,15.47
2023-04-25T10:38:20.209Z,15.41
2023-04-25T10:41:09.937Z,15.39
2023-04-25T10:43:42.857Z,15.42
2023-04-25T10:46:27.891Z,15.46
2023-04-25T10:49:00.374Z,15.53
2023-04-25T10:51:37.162Z,15.58
2023-04-25T10:54:10.659Z,15.61
2023-04-25T10:56:39.263Z,15.64
2023-04-25T10:59:15.280Z,15.65
2023-04-25T11:01:47.641Z,15.65
2023-04-25T11:04:26.966Z,15.63
2023-04-25T11:07:10.894Z,15.64
2023-04-25T11:09:41.412Z,15.64
2023-04-25T11:12:12.855Z,15.66
2023-04-25T11:17:12.196Z,15.69
2023-04-25T11:19:39.170Z,15.68
2023-04-25T11:22:07.073Z,15.66
2023-04-25T11:24:36.416Z,15.62
2023-04-25T11:27:04.869Z,15.56
2023-04-25T11:29:33.537Z,15.51
2023-04-25T11:32:02.469Z,15.47
2023-04-25T11:34:33.987Z,15.42
2023-04-25T11:37:03.287Z,15.39
2023-04-25T11:39:30.622Z,15.32
2023-04-25T11:41:57.659Z,15.33
2023-04-25T11:44:24.738Z,15.31
2023-04-25T11:46:51.592Z,15.42
2023-04-25T11:49:19.355Z,15.42
2023-04-25T11:51:48.639Z,15.51
2023-04-25T11:54:16.453Z,15.60
2023-04-25T11:56:47.146Z,15.65
2023-04-25T11:59:14.703Z,15.68
2023-04-25T12:01:50.703Z,15.71
2023-04-25T12:04:27.193Z,15.70
2023-04-25T12:06:56.508Z,15.73
2023-04-25T12:09:32.748Z,15.74
2023-04-25T12:12:03.822Z,15.73
2023-04-25T12:14:36.589Z,15.70
2023-04-25T12:17:05.312Z,15.68
2023-04-25T12:19:35.623Z,15.70
2023-04-25T12:22:24.816Z,15.75
2023-04-25T12:24:52.182Z,15.84
2023-04-25T12:27:19.640Z,15.89
2023-04-25T12:29:57.275Z,15.94
2023-04-25T12:32:24.567Z,15.99
2023-04-25T12:34:51.574Z,15.95
2023-04-25T12:37:18.531Z,15.99
2023-04-25T12:39:45.656Z,15.98
2023-04-25T12:42:13.802Z,15.93
2023-04-25T12:44:41.666Z,15.86
2023-04-25T12:47:08.712Z,15.82
2023-04-25T12:49:35.833Z,15.80
2023-04-25T12:52:02.733Z,15.72
2023-04-25T12:54:29.710Z,15.69
2023-04-25T12:56:56.678Z,15.65
2023-04-25T12:59:23.547Z,15.62
2023-04-25T13:01:50.472Z,15.58
2023-04-25T13:04:17.718Z,15.56
2023-04-25T13:06:44.741Z,15.55
2023-04-25T13:09:13.269Z,15.57
2023-04-25T13:11:41.444Z,15.56
2023-04-25T13:14:08.448Z,15.56
2023-04-25T13:16:35.630Z,15.61
2023-04-25T13:19:02.636Z,15.61
2023-04-25T13:21:33.980Z,15.59
2023-04-25T13:24:00.984Z,15.60
2023-04-25T13:26:27.920Z,15.59
2023-04-25T13:28:54.784Z,15.60
2023-04-25T13:31:22.000Z,15.59
2023-04-25T13:33:49.112Z,15.58
2023-04-25T13:36:16.258Z,15.56
2023-04-25T13:38:45.025Z,15.52
2023-04-25T13:41:16.787Z,15.55
2023-04-25T13:43:43.723Z,15.55
2023-04-25T13:46:24.813Z,15.55
2023-04-25T13:49:03.003Z,15.55
2023-04-25T13:51:37.085Z,15.54
2023-04-25T13:54:04.067Z,15.56
2023-04-25T13:56:31.292Z,15.55
2023-04-25T13:58:58.247Z,15.51
2023-04-25T14:01:25.228Z,15.58
2023-04-25T14:03:52.368Z,15.62
2023-04-25T14:06:23.744Z,15.65
2023-04-25T14:08:51.711Z,15.70
2023-04-25T14:11:19.272Z,15.77
2023-04-25T14:13:47.097Z,15.81
2023-04-25T14:16:14.079Z,15.88
2023-04-25T14:18:40.991Z,15.93
2023-04-25T14:21:07.873Z,16.01
2023-04-25T14:23:34.726Z,16.08
2023-04-25T14:26:01.795Z,16.11
2023-04-25T14:28:28.699Z,16.17
2023-04-25T14:30:55.733Z,16.20
2023-04-25T14:33:23.090Z,16.21
2023-04-25T14:35:49.967Z,16.24
2023-04-25T14:38:16.958Z,16.25
2023-04-25T14:40:43.817Z,16.25
2023-04-25T14:43:10.727Z,16.25
2023-04-25T14:45:37.655Z,16.27
2023-04-25T14:48:04.935Z,16.28
2023-04-25T14:50:31.958Z,16.29
2023-04-25T14:53:01.366Z,16.27
2023-04-25T14:55:28.614Z,16.29
2023-04-25T14:57:57.517Z,16.27
2023-04-25T15:00:26.210Z,16.25
2023-04-25T15:02:53.466Z,16.14
2023-04-25T15:05:21.019Z,16.12
2023-04-25T15:07:48.755Z,16.06
2023-04-25T15:10:16.929Z,15.98
2023-04-25T15:12:46.909Z,15.91
2023-04-25T15:15:22.782Z,15.83
2023-04-25T15:17:56.483Z,15.74
2023-04-25T15:20:26.028Z,15.66
2023-04-25T15:22:53.131Z,15.60
2023-04-25T15:25:20.106Z,15.55
2023-04-25T15:27:49.509Z,15.49
2023-04-25T15:30:18.166Z,15.42
2023-04-25T15:32:48.720Z,15.26
2023-04-25T15:35:16.283Z,15.33
2023-04-25T15:37:43.383Z,15.29
2023-04-25T15:40:14.688Z,15.28
2023-04-25T15:42:53.227Z,15.26
2023-04-25T15:45:24.218Z,15.26
2023-04-25T15:47:52.882Z,15.28
2023-04-25T15:50:20.392Z,15.30
2023-04-25T15:52:49.909Z,15.32
2023-04-25T15:55:17.505Z,15.34
2023-04-25T15:57:44.416Z,15.32
2023-04-25T16:00:13.540Z,15.28
2023-04-25T16:02:42.068Z,15.25
2023-04-25T16:05:11.494Z,15.22
2023-04-25T16:07:40.092Z,15.18
2023-04-25T16:10:07.901Z,15.14
2023-04-25T16:12:34.892Z,15.14
2023-04-25T16:15:01.875Z,15.13
2023-04-25T16:17:30.055Z,15.11
2023-04-25T16:19:58.000Z,15.09
2023-04-25T16:22:25.134Z,15.06
2023-04-25T16:24:53.353Z,15.06
2023-04-25T16:27:20.320Z,15.01
2023-04-25T16:29:49.397Z,14.98
2023-04-25T16:32:16.298Z,14.94
2023-04-25T16:34:43.584Z,14.93
2023-04-25T16:37:11.018Z,14.97
2023-04-25T16:39:37.922Z,15.03
2023-04-25T16:42:05.037Z,15.12
2023-04-25T16:44:32.057Z,15.26
2023-04-25T16:46:58.995Z,15.43
2023-04-25T16:49:26.473Z,15.58
2023-04-25T16:51:53.636Z,15.62
2023-04-25T16:54:20.822Z,15.66
2023-04-25T16:56:47.741Z,15.58
2023-04-25T16:59:14.661Z,15.55
2023-04-25T17:01:41.541Z,15.46
2023-04-25T17:04:08.572Z,15.38
2023-04-25T17:06:35.585Z,15.31
2023-04-25T17:09:02.494Z,15.20
2023-04-25T17:11:29.720Z,15.06
2023-04-25T17:13:56.596Z,14.99
2023-04-25T17:16:23.576Z,14.95
2023-04-25T17:18:51.325Z,14.92
2023-04-25T17:21:18.709Z,14.91
2023-04-25T17:23:46.165Z,14.88
2023-04-25T17:26:13.581Z,14.86
2023-04-25T17:28:42.053Z,14.83
2023-04-25T17:31:09.830Z,14.77
2023-04-25T17:33:36.827Z,14.72
2023-04-25T17:36:05.358Z,14.66
2023-04-25T17:38:32.784Z,14.53
2023-04-25T17:40:59.928Z,14.57
2023-04-25T17:43:27.696Z,14.54
2023-04-25T17:45:54.869Z,14.50
2023-04-25T17:48:22.848Z,14.44
2023-04-25T17:50:49.869Z,14.39
2023-04-25T17:53:16.822Z,14.33
2023-04-25T17:55:43.963Z,14.26
2023-04-25T17:58:11.513Z,14.22
2023-04-25T18:00:39.377Z,14.21
2023-04-25T18:03:06.993Z,14.18
2023-04-25T18:05:33.948Z,14.15
2023-04-25T18:08:01.005Z,14.15
2023-04-25T18:10:28.083Z,14.12
2023-04-25T18:12:54.975Z,14.10
2023-04-25T18:15:22.818Z,14.03
2023-04-25T18:17:49.792Z,13.98
2023-04-25T18:20:17.433Z,13.94
2023-04-25T18:22:45.518Z,13.86
2023-04-25T18:25:13.733Z,13.84
2023-04-25T18:27:41.618Z,13.78
2023-04-25T18:30:10.862Z,13.73
2023-04-25T18:32:38.186Z,13.67
2023-04-25T18:35:05.931Z,13.61
2023-04-25T18:37:32.950Z,13.54
2023-04-25T18:40:00.585Z,13.49
2023-04-25T18:42:28.361Z,13.44
2023-04-25T18:44:55.254Z,13.38
2023-04-25T18:47:22.159Z,13.34
2023-04-25T18:49:50.779Z,13.27
2023-04-25T18:52:17.766Z,13.20
2023-04-25T18:54:44.769Z,13.19
2023-04-25T18:57:14.425Z,13.16
2023-04-25T18:59:41.686Z,13.13
2023-04-25T19:02:09.372Z,13.05
2023-04-25T19:04:36.693Z,13.05
2023-04-25T19:07:04.217Z,13.01
2023-04-25T19:09:31.533Z,12.94
2023-04-25T19:11:58.438Z,12.90
2023-04-25T19:14:26.130Z,12.81
2023-04-25T19:16:53.949Z,12.81
2023-04-25T19:19:20.922Z,12.77
2023-04-25T19:21:50.254Z,12.71
2023-04-25T19:24:17.222Z,12.64
2023-04-25T19:26:44.291Z,12.58
2023-04-25T19:29:14.642Z,12.50
2023-04-25T19:31:44.292Z,12.45
2023-04-25T19:34:12.107Z,12.40
2023-04-25T19:36:41.811Z,12.35
2023-04-25T19:39:08.951Z,12.30
2023-04-25T19:41:38.115Z,12.28
2023-04-25T19:44:08.352Z,12.25
2023-04-25T19:46:36.831Z,12.23
2023-04-25T19:49:08.298Z,12.21
2023-04-25T19:51:36.956Z,12.18
2023-04-25T19:54:04.300Z,12.12
2023-04-25T19:56:31.271Z,12.10
2023-04-25T19:58:58.519Z,12.04
2023-04-25T20:01:26.232Z,11.99
2023-04-25T20:03:53.563Z,11.96
2023-04-25T20:06:20.810Z,11.88
2023-04-25T20:08:47.815Z,11.88
2023-04-25T20:11:15.083Z,11.84
2023-04-25T20:13:42.069Z,11.77
2023-04-25T20:16:09.152Z,11.71
2023-04-25T20:18:36.130Z,11.65
2023-04-25T20:21:03.069Z,11.59
2023-04-25T20:23:30.007Z,11.53
2023-04-25T20:25:56.975Z,11.50
2023-04-25T20:28:23.870Z,11.45
2023-04-25T20:30:51.493Z,11.40
2023-04-25T20:33:18.404Z,11.37
2023-04-25T20:35:46.185Z,11.34
2023-04-25T20:38:13.114Z,11.29
2023-04-25T20:40:40.090Z,11.20
2023-04-25T20:43:07.341Z,11.16
2023-04-25T20:45:34.586Z,11.11
2023-04-25T20:48:02.636Z,11.08
2023-04-25T20:50:29.660Z,11.05
2023-04-25T20:52:57.234Z,10.99
2023-04-25T20:55:24.403Z,10.94
2023-04-25T20:57:51.998Z,10.88
2023-04-25T21:00:26.517Z,10.84
2023-04-25T21:02:54.630Z,10.77
2023-04-25T21:05:22.334Z,10.74
2023-04-25T21:07:50.450Z,10.68
2023-04-25T21:10:17.415Z,10.65
2023-04-25T21:12:48.142Z,10.62
2023-04-25T21:15:21.215Z,10.59
2023-04-25T21:17:49.415Z,10.56
2023-04-25T21:20:18.977Z,10.53
2023-04-25T21:22:51.992Z,10.49
2023-04-25T21:25:25.518Z,10.47
2023-04-25T21:27:53.392Z,10.47
2023-04-25T21:30:23.558Z,10.45
2023-04-25T21:32:51.594Z,10.43
2023-04-25T21:35:20.745Z,10.41
2023-04-25T21:37:48.655Z,10.38
2023-04-25T21:40:15.640Z,10.37
2023-04-25T21:42:44.553Z,9.94
2023-04-25T21:45:11.989Z,10.22
2023-04-25T21:47:39.113Z,10.24
2023-04-25T21:50:06.810Z,10.21
2023-04-25T21:52:35.596Z,10.16
2023-04-25T21:55:02.484Z,10.12
2023-04-25T21:57:29.489Z,10.10
2023-04-25T21:59:56.355Z,10.06
2023-04-25T22:02:23.373Z,10.02
2023-04-25T22:04:50.750Z,9.99
2023-04-25T22:07:17.676Z,9.97
2023-04-25T22:09:54.293Z,9.93
2023-04-25T22:12:23.433Z,9.92
2023-04-25T22:14:50.716Z,9.90
2023-04-25T22:17:18.711Z,9.85
2023-04-25T22:19:45.710Z,9.87
2023-04-25T22:22:12.605Z,9.85
2023-04-25T22:24:40.126Z,9.84
2023-04-25T22:27:07.109Z,9.82
2023-04-25T22:29:34.129Z,9.79
2023-04-25T22:32:01.531Z,9.68
2023-04-25T22:34:28.574Z,9.73
2023-04-25T22:36:55.540Z,9.70
2023-04-25T22:39:23.177Z,9.67
2023-04-25T22:41:50.128Z,9.64
2023-04-25T22:44:17.847Z,9.62
2023-04-25T22:46:44.778Z,9.60
2023-04-25T22:49:12.026Z,9.57
2023-04-25T22:51:38.947Z,9.54
2023-04-25T22:54:05.992Z,9.50
2023-04-25T22:56:32.878Z,9.47
2023-04-25T22:58:59.964Z,9.45
2023-04-25T23:01:28.012Z,9.42
2023-04-25T23:03:55.233Z,9.39
2023-04-25T23:06:22.791Z,9.37
2023-04-25T23:08:50.369Z,9.33
2023-04-25T23:11:17.349Z,9.31
2023-04-25T23:13:44.269Z,9.26
2023-04-25T23:16:11.417Z,9.28
2023-04-25T23:18:39.446Z,9.25
2023-04-25T23:21:09.037Z,9.24
2023-04-25T23:23:36.510Z,9.21
2023-04-25T23:26:10.162Z,9.20
2023-04-25T23:28:41.982Z,9.18
2023-04-25T23:31:10.325Z,9.17
2023-04-25T23:33:37.610Z,9.15
2023-04-25T23:36:04.995Z,9.14
2023-04-25T23:38:32.783Z,9.12
2023-04-25T23:40:59.645Z,9.10
2023-04-25T23:43:26.539Z,9.07
2023-04-25T23:45:54.247Z,9.06
2023-04-25T23:48:21.299Z,9.04
2023-04-25T23:50:48.229Z,9.06
2023-04-25T23:53:15.584Z,9.05
2023-04-25T23:55:42.479Z,9.02
2023-04-25T23:58:09.366Z,9.01
